Time;durP1;ratioP1;P1;durP2;ratioP2;P2;SDS_P1;SDS_P2;PMS_P1;PMS_P2;Temp;Humidity;BMP_temperature;BMP_pressure;BME280_temperature;BME280_humidity;BME280_pressure;Samples;Min_cycle;Max_cycle;Signal;HPM_P1;HPM_P2
2021/04/12 00:02:16;;;;;;;3.97;2.70;;;4.90;99.90;;;;;;5047274;28;20048;-86
2021/04/12 00:04:53;;;;;;;2.80;1.70;;;4.90;99.90;;;;;;5034702;28;20037;-86
2021/04/12 00:07:25;;;;;;;2.97;1.70;;;5.10;99.90;;;;;;5034734;28;20084;-86
2021/04/12 00:09:51;;;;;;;3.60;1.83;;;4.70;99.90;;;;;;5037628;28;20041;-86
2021/04/12 00:12:36;;;;;;;2.60;1.53;;;4.70;99.90;;;;;;5038745;28;20033;-86
2021/04/12 00:15:19;;;;;;;2.53;1.43;;;4.60;99.90;;;;;;5040704;28;20029;-87
2021/04/12 00:17:47;;;;;;;2.50;1.38;;;4.50;99.90;;;;;;5037035;28;20036;-87
2021/04/12 00:20:28;;;;;;;2.87;1.70;;;4.50;99.90;;;;;;5020338;28;20041;-86
2021/04/12 00:23:06;;;;;;;3.53;1.83;;;4.50;99.90;;;;;;5022787;28;20030;-86
2021/04/12 00:25:54;;;;;;;3.00;1.57;;;4.40;99.90;;;;;;5023802;28;20041;-86
2021/04/12 00:28:34;;;;;;;3.77;1.67;;;4.50;99.90;;;;;;5042791;28;20040;-86
2021/04/12 00:31:12;;;;;;;3.00;1.60;;;4.50;99.90;;;;;;5042753;28;20025;-86
2021/04/12 00:33:59;;;;;;;3.47;1.50;;;4.40;99.90;;;;;;5042136;28;20388;-87
2021/04/12 00:36:27;;;;;;;3.10;1.57;;;4.60;99.90;;;;;;5040377;28;20033;-86
2021/04/12 00:39:02;;;;;;;2.97;1.50;;;4.30;99.90;;;;;;5022804;28;20058;-86
2021/04/12 00:44:28;;;;;;;2.70;1.60;;;4.30;99.90;;;;;;5023512;28;20034;-86
2021/04/12 00:47:22;;;;;;;3.37;2.20;;;4.30;99.90;;;;;;5022558;28;20093;-87
2021/04/12 00:50:19;;;;;;;3.30;2.13;;;4.20;99.90;;;;;;5021823;28;20030;-86
2021/04/12 00:53:23;;;;;;;3.10;1.80;;;4.20;99.90;;;;;;5009030;28;20042;-86
2021/04/12 00:55:54;;;;;;;3.33;2.03;;;4.10;99.90;;;;;;5032517;28;20029;-87
2021/04/12 00:58:25;;;;;;;3.00;1.87;;;4.10;99.90;;;;;;5039273;28;20033;-86
2021/04/12 01:01:12;;;;;;;3.90;2.10;;;4.10;99.90;;;;;;5039440;28;20105;-87
2021/04/12 01:04:01;;;;;;;3.17;1.60;;;4.10;99.90;;;;;;5040481;28;20060;-86
2021/04/12 01:06:45;;;;;;;3.47;1.97;;;4.00;99.90;;;;;;5039390;28;20121;-86
2021/04/12 01:09:33;;;;;;;4.07;2.20;;;4.00;99.90;;;;;;5039067;28;20021;-86
2021/04/12 01:12:07;;;;;;;3.10;1.80;;;4.20;99.90;;;;;;5041340;28;20029;-86
2021/04/12 01:14:48;;;;;;;5.10;2.60;;;3.90;99.90;;;;;;5038381;28;20026;-86
2021/04/12 01:17:51;;;;;;;4.03;2.20;;;3.90;99.90;;;;;;5039230;28;20075;-86
2021/04/12 01:21:10;;;;;;;4.33;2.30;;;4.00;99.90;;;;;;5039504;28;20022;-86
2021/04/12 01:23:58;;;;;;;3.97;2.57;;;4.00;99.90;;;;;;5020314;28;20426;-86
2021/04/12 01:26:55;;;;;;;4.30;2.50;;;4.00;99.90;;;;;;5021102;28;20030;-86
2021/04/12 01:30:05;;;;;;;4.17;2.57;;;3.90;99.90;;;;;;5041351;28;20022;-87
2021/04/12 01:32:51;;;;;;;5.90;2.83;;;3.90;99.90;;;;;;4985193;28;20038;-86
2021/04/12 01:35:24;;;;;;;4.33;2.40;;;3.70;99.90;;;;;;5038917;28;20058;-86
2021/04/12 01:38:13;;;;;;;4.13;2.53;;;3.50;99.90;;;;;;5041139;28;20038;-85
2021/04/12 01:40:47;;;;;;;5.37;2.87;;;3.50;99.90;;;;;;5059235;28;20040;-86
2021/04/12 01:43:36;;;;;;;4.37;2.70;;;3.60;99.90;;;;;;5043474;28;20045;-86
2021/04/12 01:46:26;;;;;;;5.07;3.20;;;3.70;99.90;;;;;;5042500;28;20029;-86
2021/04/12 01:48:57;;;;;;;4.33;2.87;;;3.70;99.90;;;;;;5023531;28;20022;-85
2021/04/12 01:52:03;;;;;;;4.93;2.77;;;3.60;99.90;;;;;;5023100;28;20014;-86
2021/04/12 01:54:38;;;;;;;5.10;3.20;;;3.60;99.90;;;;;;5048054;28;20112;-85
2021/04/12 01:57:32;;;;;;;5.40;2.90;;;3.50;99.90;;;;;;5035106;28;20163;-86
2021/04/12 02:00:26;;;;;;;5.30;3.03;;;3.60;99.90;;;;;;5043636;28;20029;-86
2021/04/12 02:03:00;;;;;;;4.53;2.93;;;3.60;99.90;;;;;;5040699;28;20041;-85
2021/04/12 02:05:38;;;;;;;4.73;2.90;;;3.60;99.90;;;;;;5039441;28;20029;-85
2021/04/12 02:08:42;;;;;;;5.60;3.17;;;3.80;99.90;;;;;;5040892;28;20029;-87
2021/04/12 02:11:10;;;;;;;;;;;3.60;99.90;;;;;;5039245;28;20037;-86
2021/04/12 02:14:06;;;;;;;5.33;2.63;;;3.60;99.90;;;;;;5031570;28;19912;-86
2021/04/12 02:16:57;;;;;;;4.30;2.67;;;3.60;99.90;;;;;;5035971;28;20572;-86
2021/04/12 02:19:40;;;;;;;5.10;2.90;;;3.60;99.90;;;;;;5019902;28;20026;-86
2021/04/12 02:22:15;;;;;;;5.43;3.00;;;3.70;99.90;;;;;;5023808;28;20022;-86
2021/04/12 02:24:56;;;;;;;4.57;2.87;;;3.70;99.90;;;;;;5040377;28;20022;-86
2021/04/12 02:27:45;;;;;;;4.80;2.93;;;3.60;99.90;;;;;;5040225;28;20025;-86
2021/04/12 02:30:47;;;;;;;4.17;2.67;;;3.60;99.90;;;;;;5032936;28;20034;-86
2021/04/12 02:33:41;;;;;;;4.87;3.13;;;3.60;99.90;;;;;;5040098;28;20025;-87
2021/04/12 02:36:11;;;;;;;4.80;2.90;;;3.50;99.90;;;;;;5039436;28;20025;-86
2021/04/12 02:39:01;;;;;;;5.23;3.03;;;3.60;99.90;;;;;;5039048;28;20155;-86
2021/04/12 02:41:39;;;;;;;5.60;3.43;;;3.40;99.90;;;;;;5040289;28;20052;-87
2021/04/12 02:44:25;;;;;;;4.77;3.20;;;3.50;99.90;;;;;;5039859;28;20037;-86
2021/04/12 02:47:37;;;;;;;4.57;3.00;;;3.50;99.90;;;;;;5041650;28;20557;-87
2021/04/12 02:50:24;;;;;;;5.63;3.03;;;3.40;99.90;;;;;;5039617;28;20360;-87
2021/04/12 02:53:11;;;;;;;5.70;3.60;;;3.40;99.90;;;;;;5038575;28;20037;-86
2021/04/12 02:56:08;;;;;;;6.37;3.93;;;3.40;99.90;;;;;;5039002;28;20037;-86
2021/04/12 02:59:07;;;;;;;6.67;3.37;;;3.30;99.90;;;;;;5037960;28;20060;-85
2021/04/12 03:02:02;;;;;;;6.27;4.10;;;3.30;99.90;;;;;;5020624;28;20457;-88
2021/04/12 03:04:52;;;;;;;7.47;3.93;;;3.40;99.90;;;;;;5015303;28;20455;-88
2021/04/12 03:07:42;;;;;;;6.10;3.97;;;3.40;99.90;;;;;;5013818;28;20069;-88
2021/04/12 03:10:41;;;;;;;7.60;4.23;;;3.50;99.90;;;;;;5017430;28;20030;-88
2021/04/12 03:13:37;;;;;;;6.47;3.87;;;3.60;99.90;;;;;;5030187;28;20090;-87
2021/04/12 03:16:21;;;;;;;5.90;3.90;;;3.50;99.90;;;;;;5030888;28;20026;-88
2021/04/12 03:19:11;;;;;;;6.13;3.43;;;3.50;99.90;;;;;;5029805;28;20025;-88
2021/04/12 03:22:01;;;;;;;6.10;3.97;;;3.50;99.90;;;;;;5049800;28;20120;-87
2021/04/12 03:24:54;;;;;;;5.17;3.10;;;3.60;99.90;;;;;;5032410;28;20606;-87
2021/04/12 03:27:26;;;;;;;6.07;3.73;;;3.40;99.90;;;;;;5049636;28;20421;-88
2021/04/12 03:30:16;;;;;;;6.30;3.97;;;3.40;99.90;;;;;;5033545;28;20025;-87
2021/04/12 03:33:14;;;;;;;6.57;4.17;;;3.40;99.90;;;;;;5034357;28;20045;-88
2021/04/12 03:35:58;;;;;;;7.57;3.47;;;3.30;99.90;;;;;;5034130;28;20029;-88
2021/04/12 03:38:36;;;;;;;7.17;4.03;;;3.20;99.90;;;;;;5034033;28;20021;-88
2021/04/12 03:41:13;;;;;;;6.00;3.17;;;3.20;99.90;;;;;;5033771;28;20048;-87
2021/04/12 03:44:07;;;;;;;6.10;3.90;;;3.10;99.90;;;;;;5033750;28;20026;-88
2021/04/12 03:46:49;;;;;;;6.13;3.90;;;3.10;99.90;;;;;;5021553;28;20093;-88
2021/04/12 03:49:56;;;;;;;6.55;3.53;;;3.10;99.90;;;;;;5029890;28;20025;-88
2021/04/12 03:52:56;;;;;;;7.40;3.87;;;3.10;99.90;;;;;;5031673;28;20033;-88
2021/04/12 03:55:47;;;;;;;6.47;4.07;;;3.10;99.90;;;;;;5015939;28;20030;-87
2021/04/12 03:58:41;;;;;;;7.20;3.73;;;3.20;99.90;;;;;;5036218;28;20026;-88
2021/04/12 04:01:31;;;;;;;8.17;4.07;;;3.20;99.90;;;;;;5017432;28;20068;-87
2021/04/12 04:04:29;;;;;;;7.17;4.23;;;3.10;99.90;;;;;;5017607;28;20092;-88
2021/04/12 04:06:55;;;;;;;7.63;4.33;;;3.10;99.90;;;;;;5026422;28;20415;-87
2021/04/12 04:09:35;;;;;;;7.70;4.37;;;3.10;99.90;;;;;;5017618;28;20076;-88
2021/04/12 04:12:17;;;;;;;7.07;3.90;;;3.10;99.90;;;;;;5029989;28;20045;-87
2021/04/12 04:15:03;;;;;;;8.45;4.18;;;3.20;99.90;;;;;;5017635;28;20121;-87
2021/04/12 04:18:06;;;;;;;7.83;4.23;;;3.10;99.90;;;;;;5014555;28;20152;-88
2021/04/12 04:21:09;;;;;;;7.93;3.60;;;3.10;99.90;;;;;;5021629;28;20032;-88
2021/04/12 04:24:02;;;;;;;7.10;3.83;;;3.20;99.90;;;;;;5033202;28;20029;-88
2021/04/12 04:27:04;;;;;;;8.25;4.35;;;3.20;99.90;;;;;;5016101;28;20033;-87
2021/04/12 04:29:41;;;;;;;7.18;4.50;;;3.20;99.90;;;;;;5015586;28;20104;-88
2021/04/12 04:32:27;;;;;;;7.67;4.30;;;3.20;99.90;;;;;;5013811;28;20483;-87
2021/04/12 04:35:33;;;;;;;7.83;4.70;;;3.20;99.90;;;;;;5013528;28;20054;-88
2021/04/12 04:38:35;;;;;;;7.30;4.50;;;3.20;99.90;;;;;;5027150;28;20033;-88
2021/04/12 04:41:13;;;;;;;7.87;4.93;;;3.30;99.90;;;;;;5012951;28;20022;-87
2021/04/12 04:43:44;;;;;;;10.00;5.50;;;3.30;99.90;;;;;;5013355;28;20026;-87
2021/04/12 04:46:13;;;;;;;8.43;5.00;;;3.30;99.90;;;;;;5016095;28;20647;-87
2021/04/12 04:49:03;;;;;;;9.33;5.43;;;3.20;99.90;;;;;;5033532;28;20045;-88
2021/04/12 04:51:56;;;;;;;7.87;4.80;;;3.30;99.90;;;;;;5033271;28;20032;-88
2021/04/12 04:54:40;;;;;;;7.00;4.67;;;3.30;99.90;;;;;;5033243;28;20091;-88
2021/04/12 04:57:18;;;;;;;7.40;4.40;;;3.30;99.90;;;;;;5013400;28;20033;-88
2021/04/12 05:00:12;;;;;;;5.90;3.80;;;3.20;99.90;;;;;;5012816;28;20037;-88
2021/04/12 05:02:58;;;;;;;6.50;4.20;;;3.20;99.90;;;;;;5013414;28;20037;-87
2021/04/12 05:05:35;;;;;;;6.87;3.70;;;3.20;99.90;;;;;;5022282;28;20055;-87
2021/04/12 05:08:17;;;;;;;6.73;3.83;;;3.20;99.90;;;;;;5031578;28;20064;-87
2021/04/12 05:11:24;;;;;;;6.90;4.45;;;3.10;99.90;;;;;;5032169;28;20112;-87
2021/04/12 05:14:11;;;;;;;5.33;3.47;;;3.10;99.90;;;;;;5028582;28;20040;-87
2021/04/12 05:17:01;;;;;;;5.53;3.43;;;3.10;99.90;;;;;;5030558;28;20394;-87
2021/04/12 05:19:48;;;;;;;8.10;3.43;;;3.20;99.90;;;;;;5034192;28;20479;-87
2021/04/12 05:23:01;;;;;;;5.77;3.13;;;3.20;99.90;;;;;;5033710;28;20410;-87
2021/04/12 05:25:59;;;;;;;5.63;3.30;;;3.20;99.90;;;;;;4985482;28;20079;-86
2021/04/12 05:28:52;;;;;;;5.70;3.47;;;3.10;99.90;;;;;;5032475;28;20041;-86
2021/04/12 05:31:17;;;;;;;;;;;3.10;99.90;;;;;;5028575;28;20140;-87
2021/04/12 05:34:02;;;;;;;5.63;3.43;;;3.10;99.90;;;;;;5026289;28;19944;-87
2021/04/12 05:36:28;;;;;;;7.23;3.77;;;3.00;99.90;;;;;;5045936;28;20025;-88
2021/04/12 05:39:19;;;;;;;6.93;4.20;;;3.00;99.90;;;;;;5027878;28;20021;-88
2021/04/12 05:42:02;;;;;;;9.33;4.30;;;2.80;99.90;;;;;;4995766;28;20930;-87
2021/04/12 05:44:59;;;;;;;7.20;4.67;;;2.90;99.90;;;;;;5032154;28;20104;-86
2021/04/12 05:48:02;;;;;;;6.67;4.37;;;2.90;99.90;;;;;;5045056;28;20164;-86
2021/04/12 05:51:04;;;;;;;7.50;4.63;;;2.90;99.90;;;;;;5033405;28;20021;-84
2021/04/12 05:54:04;;;;;;;7.88;4.80;;;2.80;99.90;;;;;;5037867;28;20018;-86
2021/04/12 05:56:51;;;;;;;7.73;5.00;;;2.80;99.90;;;;;;5051920;28;20471;-84
2021/04/12 05:59:30;;;;;;;7.73;4.87;;;2.80;99.90;;;;;;5039481;28;20021;-85
2021/04/12 06:02:11;;;;;;;8.30;5.00;;;2.80;99.90;;;;;;5033092;28;20037;-85
2021/04/12 06:04:45;;;;;;;8.83;5.47;;;2.70;99.90;;;;;;5037791;28;20037;-86
2021/04/12 06:07:37;;;;;;;7.77;5.03;;;2.80;99.90;;;;;;5032651;28;20029;-89
2021/04/12 06:10:29;;;;;;;8.00;5.50;;;2.80;99.90;;;;;;5032050;28;20099;-88
2021/04/12 06:13:37;;;;;;;8.77;5.13;;;2.90;99.90;;;;;;5045413;28;20071;-88
2021/04/12 06:16:45;;;;;;;9.57;5.97;;;2.90;99.90;;;;;;4993067;28;20033;-87
2021/04/12 06:19:49;;;;;;;8.07;5.37;;;3.00;99.90;;;;;;5045704;28;20072;-87
2021/04/12 06:22:47;;;;;;;8.77;5.67;;;3.10;99.90;;;;;;5040670;28;20029;-87
2021/04/12 06:25:44;;;;;;;10.83;5.97;;;3.10;99.90;;;;;;5030401;28;20022;-89
2021/04/12 06:28:37;;;;;;;11.27;6.57;;;3.00;99.90;;;;;;5025727;28;20483;-88
2021/04/12 06:31:37;;;;;;;11.47;7.07;;;3.10;99.90;;;;;;5023020;28;20052;-89
2021/04/12 06:34:37;;;;;;;9.20;5.87;;;3.20;99.90;;;;;;5022493;28;20044;-86
2021/04/12 06:37:29;;;;;;;12.00;6.20;;;3.40;99.90;;;;;;5028396;28;20093;-86
2021/04/12 06:40:14;;;;;;;;;;;3.50;99.90;;;;;;5023635;28;20397;-86
2021/04/12 06:43:17;;;;;;;12.03;6.43;;;3.50;99.90;;;;;;5043808;28;19924;-87
2021/04/12 06:46:11;;;;;;;11.43;6.10;;;3.60;99.90;;;;;;5025808;28;20033;-85
2021/04/12 06:49:10;;;;;;;9.10;5.60;;;3.60;99.90;;;;;;5021603;28;20061;-85
2021/04/12 06:52:01;;;;;;;9.97;5.87;;;3.70;99.90;;;;;;5022931;28;20029;-84
2021/04/12 06:54:54;;;;;;;11.77;7.17;;;3.60;99.90;;;;;;5024319;28;20033;-84
2021/04/12 06:57:35;;;;;;;11.33;6.43;;;3.60;99.90;;;;;;5027529;28;20101;-85
2021/04/12 07:00:25;;;;;;;11.80;6.87;;;3.70;99.90;;;;;;5056772;28;20070;-84
2021/04/12 07:03:29;;;;;;;11.07;6.20;;;3.70;99.90;;;;;;5039657;28;20026;-84
2021/04/12 07:06:07;;;;;;;13.50;6.80;;;3.80;99.90;;;;;;5046044;28;20029;-84
2021/04/12 07:08:54;;;;;;;11.23;5.97;;;3.80;99.90;;;;;;5030299;28;20033;-85
2021/04/12 07:11:25;;;;;;;11.43;6.43;;;3.80;99.90;;;;;;5024965;28;20069;-85
2021/04/12 07:13:57;;;;;;;12.18;6.28;;;3.80;99.90;;;;;;5026905;28;20017;-84
2021/04/12 07:16:52;;;;;;;11.73;6.88;;;3.70;99.90;;;;;;5028210;28;20029;-85
2021/04/12 07:19:32;;;;;;;9.77;6.50;;;3.80;99.90;;;;;;5028794;28;20426;-84
2021/04/12 07:22:13;;;;;;;9.97;6.30;;;3.80;99.90;;;;;;5027744;28;20036;-85
2021/04/12 07:25:18;;;;;;;11.40;6.83;;;3.70;99.90;;;;;;5033918;28;20394;-84
2021/04/12 07:28:21;;;;;;;11.03;6.80;;;3.70;99.90;;;;;;5028566;28;20112;-84
2021/04/12 07:30:49;;;;;;;14.15;7.50;;;3.70;99.90;;;;;;5030110;28;20021;-84
2021/04/12 07:33:38;;;;;;;11.37;7.47;;;3.70;99.90;;;;;;5029363;28;20053;-85
2021/04/12 07:36:21;;;;;;;14.57;7.57;;;3.70;99.90;;;;;;5024383;28;20014;-84
2021/04/12 07:39:09;;;;;;;13.37;8.60;;;3.70;99.90;;;;;;5026255;28;20022;-84
2021/04/12 07:41:54;;;;;;;12.17;7.50;;;3.80;99.90;;;;;;5030365;28;20399;-84
2021/04/12 07:44:41;;;;;;;13.13;8.27;;;3.70;99.90;;;;;;5027012;28;20052;-85
2021/04/12 07:47:47;;;;;;;15.10;8.70;;;3.80;99.90;;;;;;5021575;28;20029;-85
2021/04/12 07:50:44;;;;;;;16.10;10.07;;;3.80;99.90;;;;;;5022634;28;20120;-84
2021/04/12 07:53:28;;;;;;;19.67;9.70;;;3.80;99.90;;;;;;5023332;28;20548;-84
2021/04/12 07:56:32;;;;;;;13.53;8.37;;;3.80;99.90;;;;;;5021049;28;20135;-87
2021/04/12 07:59:35;;;;;;;15.17;8.47;;;3.70;99.90;;;;;;5021881;28;20030;-87
2021/04/12 08:02:22;;;;;;;16.27;8.82;;;3.70;99.90;;;;;;5016345;28;20084;-87
2021/04/12 08:05:19;;;;;;;16.30;10.03;;;3.70;99.90;;;;;;5020562;28;20026;-87
2021/04/12 08:07:59;;;;;;;17.00;9.70;;;3.80;99.90;;;;;;5024891;28;20033;-87
2021/04/12 08:10:47;;;;;;;18.00;10.47;;;3.80;99.90;;;;;;5028276;28;20022;-87
2021/04/12 08:13:46;;;;;;;15.73;9.30;;;3.80;99.90;;;;;;5028733;28;20029;-86
2021/04/12 08:16:12;;;;;;;18.67;10.07;;;3.90;99.90;;;;;;5023825;28;20022;-87
2021/04/12 08:19:15;;;;;;;17.33;10.50;;;3.90;99.90;;;;;;5027657;28;20055;-87
2021/04/12 08:22:28;;;;;;;18.87;10.37;;;4.00;99.90;;;;;;5026828;28;20029;-88
2021/04/12 08:25:02;;;;;;;15.00;9.45;;;4.20;99.90;;;;;;5021966;28;20034;-87
2021/04/12 08:27:55;;;;;;;16.63;10.67;;;4.30;99.90;;;;;;5026941;28;20536;-87
2021/04/12 08:30:42;;;;;;;18.57;10.53;;;4.40;99.90;;;;;;5020425;28;20025;-87
2021/04/12 08:33:26;;;;;;;16.23;9.90;;;4.50;99.90;;;;;;5024775;28;20150;-87
2021/04/12 08:36:17;;;;;;;18.10;11.27;;;4.60;99.90;;;;;;5025371;28;20025;-87
2021/04/12 08:39:01;;;;;;;18.47;10.70;;;4.70;99.90;;;;;;5028472;28;20033;-87
2021/04/12 08:41:52;;;;;;;14.97;10.23;;;4.70;99.90;;;;;;5027930;28;20351;-88
2021/04/12 08:44:24;;;;;;;19.20;10.60;;;4.70;99.90;;;;;;5026344;28;20052;-87
2021/04/12 08:47:10;;;;;;;15.07;9.23;;;4.80;99.90;;;;;;5035734;28;20106;-87
2021/04/12 08:50:16;;;;;;;17.27;10.23;;;4.70;99.90;;;;;;5029204;28;20075;-87
2021/04/12 08:53:03;;;;;;;14.43;8.67;;;4.80;99.90;;;;;;5030385;28;20121;-87
2021/04/12 08:55:50;;;;;;;15.27;9.80;;;4.80;99.90;;;;;;5027910;28;20025;-87
2021/04/12 08:58:56;;;;;;;15.13;9.60;;;4.90;99.90;;;;;;5028112;28;20091;-87
2021/04/12 09:02:00;;;;;;;16.93;9.83;;;5.00;99.90;;;;;;5034782;23;20403;-87
2021/04/12 09:04:37;;;;;;;16.87;9.30;;;5.10;99.90;;;;;;4990416;28;20506;-86
2021/04/12 09:07:17;;;;;;;14.37;8.43;;;5.00;99.90;;;;;;5004130;28;20029;-86
2021/04/12 09:09:57;;;;;;;13.43;8.63;;;5.00;99.90;;;;;;5007511;28;20045;-85
2021/04/12 09:12:53;;;;;;;13.03;8.73;;;5.10;99.90;;;;;;5009292;28;20041;-85
2021/04/12 09:15:37;;;;;;;14.37;8.10;;;5.10;99.90;;;;;;4991890;28;20019;-85
2021/04/12 09:18:24;;;;;;;13.40;7.67;;;5.10;99.90;;;;;;4992073;28;20483;-85
2021/04/12 09:21:12;;;;;;;13.63;7.47;;;5.00;99.90;;;;;;5003628;28;20026;-86
2021/04/12 09:23:50;;;;;;;11.70;7.13;;;5.10;99.90;;;;;;5002165;28;20121;-85
2021/04/12 09:27:04;;;;;;;13.73;7.53;;;5.00;99.90;;;;;;4989907;28;20031;-85
2021/04/12 09:30:20;;;;;;;15.13;7.20;;;5.00;99.90;;;;;;4970546;28;20035;-86
2021/04/12 09:32:57;;;;;;;10.50;6.73;;;5.00;99.90;;;;;;4970786;28;20027;-87
2021/04/12 09:36:01;;;;;;;10.30;6.97;;;4.90;99.90;;;;;;4990645;28;20033;-86
2021/04/12 09:38:58;;;;;;;12.40;7.20;;;4.90;99.90;;;;;;4989435;28;20184;-87
2021/04/12 09:42:05;;;;;;;13.53;7.27;;;4.90;99.90;;;;;;4982747;28;20038;-86
2021/04/12 09:45:29;;;;;;;12.80;6.30;;;5.00;99.90;;;;;;4966228;28;20050;-87
2021/04/12 09:48:31;;;;;;;10.47;5.43;;;5.10;99.90;;;;;;4955750;29;20059;-88
2021/04/12 09:51:25;;;;;;;7.93;5.20;;;5.00;99.90;;;;;;5008158;28;20026;-85
2021/04/12 09:54:48;;;;;;;11.47;5.27;;;5.00;99.90;;;;;;4990166;28;20507;-86
2021/04/12 09:57:58;;;;;;;9.43;5.22;;;5.00;99.90;;;;;;4936094;29;20059;-88
2021/04/12 10:00:35;;;;;;;8.03;5.00;;;5.10;99.90;;;;;;4952387;29;20035;-87
2021/04/12 10:03:20;;;;;;;8.67;4.73;;;5.10;99.90;;;;;;4987184;28;20125;-87
2021/04/12 10:06:09;;;;;;;9.43;4.17;;;5.10;99.90;;;;;;4988484;28;20080;-86
2021/04/12 10:08:46;;;;;;;10.77;4.63;;;5.20;99.90;;;;;;4991351;28;20372;-86
2021/04/12 10:11:16;;;;;;;6.13;4.00;;;5.30;99.90;;;;;;4981541;28;20026;-86
2021/04/12 10:14:05;;;;;;;6.93;4.50;;;5.40;99.90;;;;;;4986168;28;20341;-85
2021/04/12 10:16:44;;;;;;;8.17;4.53;;;5.50;99.90;;;;;;4990404;28;20023;-87
2021/04/12 10:19:19;;;;;;;7.90;3.97;;;5.70;99.90;;;;;;4983968;28;20416;-86
2021/04/12 10:22:00;;;;;;;5.17;2.73;;;5.80;99.90;;;;;;4985046;28;20029;-87
2021/04/12 10:24:32;;;;;;;7.10;3.83;;;5.60;99.90;;;;;;4984582;28;20026;-86
2021/04/12 10:27:13;;;;;;;9.70;4.00;;;5.50;99.90;;;;;;4986729;28;20066;-87
2021/04/12 10:30:01;;;;;;;6.87;4.23;;;5.50;99.90;;;;;;4982564;28;20031;-86
2021/04/12 10:32:32;;;;;;;5.47;3.00;;;5.50;99.90;;;;;;4986609;28;20490;-87
2021/04/12 10:35:07;;;;;;;9.20;3.87;;;5.60;99.90;;;;;;4981274;28;20038;-86
2021/04/12 10:37:51;;;;;;;6.40;3.03;;;5.80;99.90;;;;;;4984246;28;20027;-85
2021/04/12 10:40:45;;;;;;;6.07;3.17;;;6.10;99.90;;;;;;4991863;28;20037;-87
2021/04/12 10:43:23;;;;;;;7.07;3.23;;;6.30;99.90;;;;;;4981401;28;20065;-86
2021/04/12 10:46:01;;;;;;;7.33;2.80;;;6.30;99.90;;;;;;4991735;28;20117;-89
2021/04/12 10:48:45;;;;;;;3.57;1.50;;;6.30;99.90;;;;;;4999024;28;20305;-87
2021/04/12 10:51:22;;;;;;;5.40;2.00;;;6.30;99.90;;;;;;4984410;28;20105;-85
2021/04/12 10:54:22;;;;;;;4.77;2.20;;;6.40;99.90;;;;;;4987784;28;20023;-87
2021/04/12 10:56:57;;;;;;;5.73;2.30;;;6.60;99.90;;;;;;4987477;28;20034;-85
2021/04/12 11:00:00;;;;;;;3.83;1.60;;;6.60;99.90;;;;;;4985576;28;20029;-86
2021/04/12 11:03:04;;;;;;;4.83;1.90;;;6.80;99.40;;;;;;4992783;28;20033;-87
2021/04/12 11:05:32;;;;;;;4.73;2.10;;;6.90;98.40;;;;;;4991085;28;20045;-84
2021/04/12 11:08:36;;;;;;;8.23;2.30;;;6.80;99.90;;;;;;4989182;28;20026;-85
2021/04/12 11:11:26;;;;;;;4.63;1.87;;;6.70;98.70;;;;;;4989394;28;20066;-85
2021/04/12 11:14:21;;;;;;;3.77;1.67;;;6.50;98.20;;;;;;4991513;28;20034;-85
2021/04/12 11:16:50;;;;;;;4.83;2.00;;;6.50;99.90;;;;;;4993631;28;20022;-85
2021/04/12 11:19:58;;;;;;;4.53;2.00;;;6.50;99.90;;;;;;5001967;28;20085;-86
2021/04/12 11:22:32;;;;;;;6.60;1.97;;;6.70;99.90;;;;;;4990786;28;20022;-85
2021/04/12 11:25:21;;;;;;;5.60;1.70;;;6.70;99.90;;;;;;4991223;28;20392;-85
2021/04/12 11:28:24;;;;;;;7.10;1.97;;;6.80;99.90;;;;;;4986282;28;20149;-86
2021/04/12 11:31:06;;;;;;;4.33;2.03;;;6.90;99.90;;;;;;4983987;28;20050;-86
2021/04/12 11:33:36;;;;;;;4.55;1.60;;;6.80;99.90;;;;;;4985533;28;20027;-86
2021/04/12 11:36:24;;;;;;;4.33;1.70;;;6.90;98.90;;;;;;4987515;28;20023;-86
2021/04/12 11:39:12;;;;;;;3.70;1.57;;;7.00;99.30;;;;;;4990082;28;20022;-86
2021/04/12 11:41:59;;;;;;;4.63;1.70;;;7.20;99.90;;;;;;4985017;28;20055;-85
2021/04/12 11:44:47;;;;;;;4.90;1.90;;;7.00;96.40;;;;;;4982487;28;20030;-86
2021/04/12 11:47:44;;;;;;;6.13;1.70;;;7.10;95.30;;;;;;4983955;28;20034;-87
2021/04/12 11:50:31;;;;;;;3.23;1.37;;;7.00;96.10;;;;;;4985198;28;20038;-84
2021/04/12 11:53:15;;;;;;;6.20;1.70;;;6.90;96.40;;;;;;4992714;28;20029;-86
2021/04/12 11:55:53;;;;;;;4.97;1.80;;;6.80;96.60;;;;;;4993963;28;20030;-85
2021/04/12 11:58:32;;;;;;;3.60;1.47;;;6.90;96.40;;;;;;4993449;28;20030;-85
2021/04/12 12:01:12;;;;;;;3.00;1.33;;;7.20;96.00;;;;;;5005926;28;20073;-85
2021/04/12 12:03:59;;;;;;;4.85;1.40;;;7.50;94.90;;;;;;4987229;28;20039;-87
2021/04/12 12:06:53;;;;;;;4.30;1.50;;;7.90;93.20;;;;;;4989586;28;20112;-86
2021/04/12 12:10:13;;;;;;;3.97;1.30;;;8.00;93.50;;;;;;4989877;28;20046;-86
2021/04/12 12:13:05;;;;;;;3.08;1.10;;;8.00;88.70;;;;;;4964568;28;20046;-85
2021/04/12 12:16:15;;;;;;;6.95;1.25;;;8.20;85.10;;;;;;4987939;28;20034;-86
2021/04/12 12:18:52;;;;;;;4.93;1.50;;;8.30;81.60;;;;;;5007820;28;20570;-86
2021/04/12 12:21:28;;;;;;;3.65;1.15;;;8.00;84.30;;;;;;4986710;28;20073;-85
2021/04/12 12:24:11;;;;;;;5.18;1.30;;;8.00;82.60;;;;;;4982090;28;20038;-86
2021/04/12 12:26:39;;;;;;;4.03;1.20;;;7.90;86.50;;;;;;4986932;28;20038;-85
2021/04/12 12:29:12;;;;;;;5.93;1.77;;;7.60;84.60;;;;;;4986246;28;20026;-85
2021/04/12 12:32:06;;;;;;;4.43;1.37;;;7.10;84.20;;;;;;4989274;28;20085;-85
2021/04/12 12:34:37;;;;;;;4.37;1.37;;;7.10;86.00;;;;;;5002801;28;20041;-85
2021/04/12 12:37:02;;;;;;;4.00;1.00;;;6.90;89.80;;;;;;4993689;28;20027;-85
2021/04/12 12:39:52;;;;;;;4.07;1.10;;;6.80;87.30;;;;;;4988802;28;20117;-84
2021/04/12 12:42:33;;;;;;;3.93;1.00;;;6.90;90.50;;;;;;4990548;28;20023;-88
2021/04/12 12:45:10;;;;;;;3.63;1.10;;;7.00;88.40;;;;;;4987418;28;20041;-86
2021/04/12 12:47:37;;;;;;;3.97;1.30;;;7.10;90.60;;;;;;4984053;28;20026;-85
2021/04/12 12:50:16;;;;;;;4.40;1.20;;;7.10;90.70;;;;;;4989569;28;20023;-84
2021/04/12 12:52:58;;;;;;;6.03;1.47;;;7.20;88.50;;;;;;4992741;28;20019;-86
2021/04/12 12:55:32;;;;;;;2.92;1.10;;;7.20;91.20;;;;;;4993157;28;20037;-83
2021/04/12 12:58:07;;;;;;;3.97;0.93;;;7.40;87.30;;;;;;4994232;28;20130;-87
2021/04/12 13:00:44;;;;;;;3.07;1.10;;;7.60;88.10;;;;;;4982395;28;20105;-87
2021/04/12 13:03:39;;;;;;;3.03;0.87;;;7.60;84.80;;;;;;4987587;28;20037;-84
2021/04/12 13:06:31;;;;;;;2.25;0.80;;;7.50;80.40;;;;;;4994238;28;20022;-85
2021/04/12 13:09:05;;;;;;;3.35;0.88;;;7.60;79.70;;;;;;4986885;28;20034;-87
2021/04/12 13:11:57;;;;;;;1.83;0.68;;;7.90;82.60;;;;;;5010147;28;20027;-85
2021/04/12 13:14:50;;;;;;;2.70;0.70;;;8.00;77.10;;;;;;5005275;28;20029;-85
2021/04/12 13:17:35;;;;;;;2.50;0.50;;;8.30;70.70;;;;;;4986860;28;20078;-84
2021/04/12 13:20:19;;;;;;;2.05;0.70;;;9.00;75.00;;;;;;5008457;28;20035;-86
2021/04/12 13:22:48;;;;;;;3.00;1.10;;;9.40;71.10;;;;;;4993726;28;20027;-87
2021/04/12 13:25:40;;;;;;;2.05;0.60;;;9.90;69.10;;;;;;4999444;28;20038;-85
2021/04/12 13:28:26;;;;;;;2.22;0.82;;;10.10;71.20;;;;;;5013998;28;20471;-85
2021/04/12 13:31:09;;;;;;;2.47;0.70;;;10.00;71.00;;;;;;4990809;28;20844;-85
2021/04/12 13:33:48;;;;;;;2.50;0.73;;;9.80;73.80;;;;;;4995274;28;20027;-85
2021/04/12 13:36:31;;;;;;;3.50;0.98;;;9.80;71.20;;;;;;4992325;28;20802;-87
2021/04/12 13:39:05;;;;;;;3.10;0.70;;;9.60;71.20;;;;;;4997713;28;20032;-86
2021/04/12 13:41:45;;;;;;;1.95;0.77;;;9.60;72.60;;;;;;4995910;28;20031;-88
2021/04/12 13:44:22;;;;;;;3.72;0.90;;;9.50;74.00;;;;;;4993430;28;20482;-88
2021/04/12 13:47:04;;;;;;;1.83;0.70;;;9.60;75.00;;;;;;4989150;28;20080;-86
2021/04/12 13:49:47;;;;;;;3.95;0.90;;;9.70;70.40;;;;;;4989499;28;20034;-85
2021/04/12 13:52:28;;;;;;;8.15;3.15;;;9.70;71.20;;;;;;4987762;28;20181;-86
2021/04/12 13:55:08;;;;;;;2.38;1.00;;;9.90;65.40;;;;;;4985444;28;20034;-87
2021/04/12 13:57:47;;;;;;;2.75;0.60;;;10.50;66.00;;;;;;5004327;28;20034;-86
2021/04/12 14:00:22;;;;;;;2.15;0.65;;;10.60;60.90;;;;;;4995316;28;20091;-87
2021/04/12 14:02:54;;;;;;;1.63;0.60;;;10.40;62.50;;;;;;5002397;28;20090;-85
2021/04/12 14:05:32;;;;;;;2.22;0.70;;;10.50;61.90;;;;;;4991611;28;20031;-86
2021/04/12 14:08:16;;;;;;;3.28;0.95;;;10.60;58.20;;;;;;4989525;28;20022;-87
2021/04/12 14:10:57;;;;;;;3.45;0.80;;;10.60;63.20;;;;;;4986213;28;20027;-87
2021/04/12 14:13:38;;;;;;;3.53;0.83;;;10.80;61.80;;;;;;5003169;28;20081;-87
2021/04/12 14:16:07;;;;;;;1.65;0.70;;;10.50;61.20;;;;;;4988789;28;20049;-87
2021/04/12 14:18:38;;;;;;;3.75;0.95;;;10.40;62.50;;;;;;4987354;28;20022;-85
2021/04/12 14:21:27;;;;;;;2.70;0.88;;;10.50;63.50;;;;;;4988931;28;20023;-85
2021/04/12 14:24:18;;;;;;;4.07;1.00;;;10.50;63.00;;;;;;4987349;28;20038;-85
2021/04/12 14:27:04;;;;;;;5.25;1.05;;;10.60;64.20;;;;;;4992927;28;20092;-86
2021/04/12 14:29:31;;;;;;;5.57;1.20;;;10.90;66.40;;;;;;4991276;28;20018;-86
2021/04/12 14:32:13;;;;;;;1.63;0.60;;;10.70;64.30;;;;;;4988127;28;20026;-85
2021/04/12 14:34:46;;;;;;;3.20;0.95;;;10.80;66.00;;;;;;4993748;28;20026;-87
2021/04/12 14:37:21;;;;;;;4.25;1.38;;;10.50;65.90;;;;;;4993358;28;20027;-87
2021/04/12 14:39:47;;;;;;;4.35;1.17;;;10.10;67.90;;;;;;4991103;28;20367;-86
2021/04/12 14:42:21;;;;;;;5.40;1.50;;;10.00;65.60;;;;;;4988104;28;20026;-84